The Farmers Guide 72-hour weather forecast

Enter Postcode:

Scattered Showers

(12:00)

14.0°C

IP2 0SS

Wind Soil
Date Time Weather Temp Rain Humid Cloud Press (mph) Temp Moist
28/05 12:00 14.0°C 0.2mm 55% 55% 1015mb 16w (267 degrees) 12.2°C 0.3%
15:00 15.3°C 0.2mm 50% 31% 1014mb 17w (263 degrees) 12.7°C 0.3%
18:00 13.9°C 0.2mm 58% 26% 1014mb 13w (264 degrees) 12.8°C 0.3%
21:00 9.3°C 0.0mm 70% 60% 1014mb 11sww (251 degrees) 12.4°C 0.3%
29/05 00:00 7.6°C 0.0mm 75% 55% 1013mb 10sww (252 degrees) 11.8°C 0.3%
03:00 6.8°C 0.0mm 80% 81% 1012mb 9sww (248 degrees) 11.1°C 0.3%
06:00 9.0°C 0.0mm 74% 88% 1010mb 12sww (241 degrees) 10.8°C 0.3%
09:00 12.9°C 0.0mm 63% 29% 1008mb 15sw (222 degrees) 11.0°C 0.3%
12:00 11.2°C 1.5mm 88% 59% 1005mb 21ssw (207 degrees) 11.1°C 0.3%
15:00 13.9°C 0.7mm 66% 68% 1004mb 27w (278 degrees) 11.2°C 0.3%
18:00 11.8°C 0.8mm 70% 58% 1006mb 16nww (291 degrees) 11.3°C 0.3%
21:00 8.0°C 0.0mm 80% 12% 1010mb 10w (266 degrees) 10.9°C 0.3%
30/05 00:00 6.6°C 0.0mm 81% 6% 1011mb 10w (266 degrees) 10.4°C 0.3%
03:00 5.5°C 0.0mm 84% 4% 1011mb 10w (262 degrees) 9.8°C 0.3%
06:00 7.6°C 0.0mm 76% 23% 1013mb 12w (277 degrees) 9.5°C 0.3%
09:00 12.1°C 0.0mm 56% 0% 1014mb 13nww (289 degrees) 9.7°C 0.3%
12:00 14.6°C 0.0mm 46% 18% 1015mb 11w (278 degrees) 10.4°C 0.3%
15:00 15.9°C 0.0mm 43% 73% 1016mb 9w (260 degrees) 11.1°C 0.3%
18:00 14.8°C 0.0mm 57% 84% 1016mb 4sw (226 degrees) 11.5°C 0.3%
21:00 11.1°C 0.0mm 67% 59% 1016mb 9ssw (207 degrees) 11.3°C 0.3%
31/05 00:00 8.8°C 0.0mm 76% 67% 1015mb 10sw (214 degrees) 11.0°C 0.3%
03:00 7.6°C 0.0mm 84% 22% 1014mb 10ssw (206 degrees) 10.5°C 0.3%
06:00 11.8°C 0.0mm 77% 51% 1012mb 14ssw (201 degrees) 10.4°C 0.3%
09:00 13.0°C 0.0mm 79% 99% 1011mb 18ssw (206 degrees) 10.6°C 0.3%
The Farmers Guide weather forecast is a free service for users of this website.
 
We now carry forecasts based on postcodes. Just enter your postcode and the weather page will display the forecast for the following 72 hours, broken down into three-hour intervals.
 
The forecast data provided for each three-hour period includes: a general graphic showing the likely weather conditions; average temperatures for the period; cloud cover; barometric pressure; wind speed and direction; humidity; and rainfall.
 
An indication of the likely soil temperature and soil moisture will also be displayed for most postcodes, although this data is not available for every area.
 
We hope you will find this service useful and would welcome any feedback from you.
 
 

Search

Read our full May issue here FREE!

Advertisments